Time;durP1;ratioP1;P1;durP2;ratioP2;P2;SDS_P1;SDS_P2;PMS_P1;PMS_P2;Temp;Humidity;BMP_temperature;BMP_pressure;BME280_temperature;BME280_humidity;BME280_pressure;Samples;Min_cycle;Max_cycle;Signal;HPM_P1;HPM_P2
2023/02/16 00:03:49;;;;;;;;;;;;;;;18.47;31.96;96623.44;10462638;28;2027;-55
2023/02/16 00:08:50;;;;;;;;;;;;;;;18.45;31.91;96628.13;10465009;28;1979;-54
2023/02/16 00:13:51;;;;;;;;;;;;;;;18.43;31.95;96630.16;10466940;28;1992;-53
2023/02/16 00:18:52;;;;;;;;;;;;;;;18.40;31.96;96625.41;10464625;28;2018;-53
2023/02/16 00:23:52;;;;;;;;;;;;;;;18.39;31.98;96623.81;10442704;28;2121;-53
2023/02/16 00:28:53;;;;;;;;;;;;;;;18.37;31.95;96618.00;10417870;28;2038;-53
2023/02/16 00:33:53;;;;;;;;;;;;;;;18.34;32.02;96603.53;10390963;28;2037;-52
2023/02/16 00:38:53;;;;;;;;;;;;;;;18.32;31.90;96592.47;10413392;28;2185;-52
2023/02/16 00:43:54;;;;;;;;;;;;;;;18.32;31.89;96602.19;10411000;28;2066;-51
2023/02/16 00:48:54;;;;;;;;;;;;;;;18.30;31.88;96593.75;10423729;28;2090;-53
2023/02/16 00:53:54;;;;;;;;;;;;;;;18.28;31.99;96585.34;10410780;28;2200;-52
2023/02/16 00:58:55;;;;;;;;;;;;;;;18.26;31.89;96579.53;10414316;28;1962;-55
2023/02/16 01:03:55;;;;;;;;;;;;;;;18.24;31.92;96582.38;10424394;28;2071;-54
2023/02/16 01:14:18;;;;;;;;;;;;;;;18.22;31.98;96588.88;10395369;28;2046;-51
2023/02/16 01:19:19;;;;;;;;;;;;;;;18.20;31.98;96586.50;10410349;28;2042;-52
2023/02/16 01:24:19;;;;;;;;;;;;;;;18.19;32.04;96592.81;10378235;28;1071915;-53
2023/02/16 01:29:19;;;;;;;;;;;;;;;18.16;31.96;96588.00;10414426;28;2084;-53
2023/02/16 01:34:20;;;;;;;;;;;;;;;18.15;32.01;96594.31;10412612;28;2054;-54
2023/02/16 01:39:20;;;;;;;;;;;;;;;18.15;31.91;96609.25;10416483;28;2020;-52
2023/02/16 01:44:20;;;;;;;;;;;;;;;18.14;32.04;96599.78;10414174;28;2118;-55
2023/02/16 01:49:20;;;;;;;;;;;;;;;18.11;31.92;96602.88;10411225;28;2153;-52
2023/02/16 01:54:27;;;;;;;;;;;;;;;18.09;31.98;96590.00;10395106;28;2091;-53
2023/02/16 01:59:42;;;;;;;;;;;;;;;18.08;31.99;96590.22;10419252;28;2097;-54
2023/02/16 02:10:15;;;;;;;;;;;;;;;18.06;31.93;96592.28;10415330;28;2081;-53
2023/02/16 02:15:16;;;;;;;;;;;;;;;18.04;32.03;96576.00;10409705;28;2133;-54
2023/02/16 02:26:05;;;;;;;;;;;;;;;18.02;32.00;96573.63;10419428;28;2091;-53
2023/02/16 02:31:18;;;;;;;;;;;;;;;18.01;31.95;96571.22;10419830;28;2077;-52
2023/02/16 02:36:35;;;;;;;;;;;;;;;17.98;31.88;96572.50;10427427;28;2069;-51
2023/02/16 02:47:00;;;;;;;;;;;;;;;17.96;31.90;96564.06;10422994;28;2253;-54
2023/02/16 02:52:00;;;;;;;;;;;;;;;17.95;31.95;96562.47;10436197;28;2190;-51
2023/02/16 03:02:20;;;;;;;;;;;;;;;17.92;31.93;96562.16;10423241;28;2007;-52
2023/02/16 03:07:21;;;;;;;;;;;;;;;17.90;32.04;96562.41;10420242;28;2009;-53
2023/02/16 03:33:38;;;;;;;;;;;;;;;17.83;31.88;96564.34;10419066;28;2010;-54
2023/02/16 03:38:38;;;;;;;;;;;;;;;17.82;31.82;96558.34;10397306;28;2057;-54
2023/02/16 03:43:39;;;;;;;;;;;;;;;17.82;31.93;96563.59;10394293;28;2132;-53
2023/02/16 03:48:39;;;;;;;;;;;;;;;17.83;31.68;96569.59;10415805;28;2101;-53
2023/02/16 03:53:39;;;;;;;;;;;;;;;17.82;31.71;96574.09;10417908;28;2146;-55
2023/02/16 03:58:39;;;;;;;;;;;;;;;17.83;31.83;96588.78;10418440;28;1950;-56
2023/02/16 04:03:40;;;;;;;;;;;;;;;17.84;31.75;96587.75;10414840;28;1970;-55
2023/02/16 04:08:40;;;;;;;;;;;;;;;17.87;31.74;96583.84;10413632;28;2078;-56
2023/02/16 04:13:40;;;;;;;;;;;;;;;17.85;31.63;96578.84;10419161;28;2047;-56
2023/02/16 04:18:41;;;;;;;;;;;;;;;17.86;31.74;96588.31;10413810;28;2391;-56
2023/02/16 04:23:41;;;;;;;;;;;;;;;17.90;31.71;96583.38;10410517;28;2053;-51
2023/02/16 04:28:41;;;;;;;;;;;;;;;17.91;31.63;96576.31;10431018;28;1936;-54
2023/02/16 04:33:42;;;;;;;;;;;;;;;17.91;31.74;96586.81;10397938;28;2043;-55
2023/02/16 04:38:42;;;;;;;;;;;;;;;17.93;31.61;96582.13;10414916;28;2087;-55
2023/02/16 04:43:42;;;;;;;;;;;;;;;17.92;31.61;96583.13;10427674;28;2023;-54
2023/02/16 04:48:42;;;;;;;;;;;;;;;17.93;31.62;96585.50;10410038;28;1984;-50
2023/02/16 04:53:43;;;;;;;;;;;;;;;17.96;31.53;96584.25;10423048;28;2011;-53
2023/02/16 04:58:43;;;;;;;;;;;;;;;17.95;31.54;96582.69;10414479;28;2088;-53
2023/02/16 05:03:43;;;;;;;;;;;;;;;17.96;31.52;96579.00;10395179;28;2109;-54
2023/02/16 05:08:43;;;;;;;;;;;;;;;17.96;31.39;96579.00;10410735;28;2109;-53
2023/02/16 05:19:03;;;;;;;;;;;;;;;18.04;31.34;96582.03;10411435;28;2115;-55
2023/02/16 05:24:09;;;;;;;;;;;;;;;18.12;31.45;96583.47;10412565;28;2100;-53
2023/02/16 05:29:10;;;;;;;;;;;;;;;18.18;31.36;96577.28;10415445;28;2116;-54
2023/02/16 05:34:10;;;;;;;;;;;;;;;18.24;31.27;96581.56;10424374;28;2114;-55
2023/02/16 05:39:10;;;;;;;;;;;;;;;18.33;31.27;96588.03;10412817;28;2043;-54
2023/02/16 05:44:10;;;;;;;;;;;;;;;18.39;31.17;96594.94;10405953;28;2061;-54
2023/02/16 05:49:11;;;;;;;;;;;;;;;18.47;30.96;96607.69;10411960;28;1990;-55
2023/02/16 05:54:16;;;;;;;;;;;;;;;18.53;30.98;96612.78;10418159;28;2076;-54
2023/02/16 05:59:16;;;;;;;;;;;;;;;18.57;30.89;96613.91;10419628;28;1950;-53
2023/02/16 06:04:16;;;;;;;;;;;;;;;18.60;30.92;96610.81;10392415;28;2085;-55
2023/02/16 06:09:16;;;;;;;;;;;;;;;18.65;30.69;96615.31;10419114;28;2296;-54
2023/02/16 06:14:17;;;;;;;;;;;;;;;18.64;30.80;96617.16;10403138;28;2160;-54
2023/02/16 06:19:17;;;;;;;;;;;;;;;18.65;30.71;96624.00;10420297;28;2019;-56
2023/02/16 06:24:18;;;;;;;;;;;;;;;18.68;30.74;96618.28;10435702;28;2040;-54
2023/02/16 06:29:18;;;;;;;;;;;;;;;18.71;30.66;96627.50;10462468;28;2019;-55
2023/02/16 06:34:18;;;;;;;;;;;;;;;18.72;30.56;96630.91;10457943;28;2031;-55
2023/02/16 06:39:19;;;;;;;;;;;;;;;18.72;30.50;96631.72;10460975;28;2055;-55
2023/02/16 06:44:19;;;;;;;;;;;;;;;18.75;30.49;96636.50;10461549;28;2088;-53
2023/02/16 06:49:19;;;;;;;;;;;;;;;18.79;30.50;96649.94;10455595;28;2185;-51
2023/02/16 06:54:19;;;;;;;;;;;;;;;18.83;30.41;96654.47;10462676;28;2134;-53
2023/02/16 06:59:20;;;;;;;;;;;;;;;18.86;30.48;96653.19;10457166;28;2066;-49
2023/02/16 07:04:20;;;;;;;;;;;;;;;18.89;30.46;96650.88;10450975;28;2356;-53
2023/02/16 07:09:20;;;;;;;;;;;;;;;18.91;30.42;96658.53;10465364;28;1965;-53
2023/02/16 07:14:21;;;;;;;;;;;;;;;18.96;30.35;96655.97;10465915;28;2351;-55
2023/02/16 07:19:21;;;;;;;;;;;;;;;18.97;30.32;96654.94;10469262;28;2310;-50
2023/02/16 07:24:21;;;;;;;;;;;;;;;19.00;30.28;96659.72;10425622;28;2017;-54
2023/02/16 07:29:22;;;;;;;;;;;;;;;19.04;30.27;96666.06;10413064;28;2304;-49
2023/02/16 07:34:22;;;;;;;;;;;;;;;19.06;30.38;96667.41;10413343;28;1981;-55
2023/02/16 07:39:22;;;;;;;;;;;;;;;19.10;30.38;96665.09;10435577;28;1959;-54
2023/02/16 07:44:22;;;;;;;;;;;;;;;19.11;30.42;96667.47;10429042;28;2036;-55
2023/02/16 07:49:23;;;;;;;;;;;;;;;19.14;30.44;96676.72;10439118;28;2345;-51
2023/02/16 07:54:23;;;;;;;;;;;;;;;19.16;30.61;96672.81;10433068;28;2169;-51
2023/02/16 07:59:23;;;;;;;;;;;;;;;19.20;30.61;96679.19;10425403;28;2298;-50
2023/02/16 08:04:24;;;;;;;;;;;;;;;19.21;30.65;96662.38;10419705;28;1969;-53
2023/02/16 08:09:24;;;;;;;;;;;;;;;19.22;30.61;96671.84;10417058;28;2389;-54
2023/02/16 08:14:24;;;;;;;;;;;;;;;19.21;30.75;96677.34;10418725;28;2148;-55
2023/02/16 08:19:24;;;;;;;;;;;;;;;19.21;30.77;96687.84;10420522;28;2395;-53
2023/02/16 08:24:25;;;;;;;;;;;;;;;19.16;30.85;96688.59;10426176;28;2085;-54
2023/02/16 08:29:25;;;;;;;;;;;;;;;19.13;30.85;96686.44;10423702;28;2319;-52
2023/02/16 08:34:26;;;;;;;;;;;;;;;19.10;30.99;96692.16;10420013;28;2023;-52
2023/02/16 08:39:27;;;;;;;;;;;;;;;19.07;31.16;96702.38;10426324;28;2020;-50
2023/02/16 08:44:28;;;;;;;;;;;;;;;19.04;31.36;96694.97;10420900;28;2284;-53
2023/02/16 08:49:28;;;;;;;;;;;;;;;19.01;31.36;96692.81;10424080;28;2294;-52
2023/02/16 08:54:29;;;;;;;;;;;;;;;19.00;31.54;96694.66;10417346;28;2271;-53
2023/02/16 08:59:29;;;;;;;;;;;;;;;19.00;31.72;96689.38;10420981;28;1979;-55
2023/02/16 09:04:29;;;;;;;;;;;;;;;18.98;31.72;96688.84;10429900;28;1965;-56
2023/02/16 09:09:30;;;;;;;;;;;;;;;18.93;31.81;96691.41;10424251;28;2267;-52
2023/02/16 09:14:30;;;;;;;;;;;;;;;18.94;32.12;96687.72;10402510;28;1997;-54
2023/02/16 09:19:30;;;;;;;;;;;;;;;18.93;32.17;96686.16;10414772;28;2072;-53
2023/02/16 09:24:31;;;;;;;;;;;;;;;18.87;32.13;96692.38;10433714;28;2266;-51
2023/02/16 09:29:31;;;;;;;;;;;;;;;18.84;32.23;96697.28;10423043;28;2270;-52
2023/02/16 09:34:31;;;;;;;;;;;;;;;18.81;32.25;96693.31;10420794;28;1973;-54
2023/02/16 09:39:32;;;;;;;;;;;;;;;18.80;32.50;96696.97;10422664;28;2401;-50
2023/02/16 09:44:47;;;;;;;;;;;;;;;18.79;32.44;96692.78;10420946;28;2249;-51
2023/02/16 09:49:48;;;;;;;;;;;;;;;18.76;32.69;96690.59;10418089;28;2354;-50
2023/02/16 09:54:52;;;;;;;;;;;;;;;18.76;32.60;96689.81;10403496;28;2324;-52
2023/02/16 09:59:52;;;;;;;;;;;;;;;18.74;32.79;96689.25;10428224;28;2134;-52
2023/02/16 10:04:58;;;;;;;;;;;;;;;18.75;32.57;96699.53;10425973;28;2171;-49
2023/02/16 10:09:59;;;;;;;;;;;;;;;18.75;32.33;96698.72;10412849;28;2407;-49
2023/02/16 10:15:06;;;;;;;;;;;;;;;18.74;32.35;96697.13;10422907;28;2053;-50
2023/02/16 10:20:22;;;;;;;;;;;;;;;18.69;32.24;96692.59;10412231;28;2371;-52
2023/02/16 10:25:25;;;;;;;;;;;;;;;18.67;32.22;96695.44;10464920;28;2266;-49
2023/02/16 10:30:27;;;;;;;;;;;;;;;18.66;32.32;96686.00;10468822;28;2066;-51
2023/02/16 10:35:28;;;;;;;;;;;;;;;18.66;32.42;96685.19;10452416;28;2150;-50
2023/02/16 10:40:29;;;;;;;;;;;;;;;18.67;32.51;96686.78;10468264;28;2263;-54
2023/02/16 10:45:39;;;;;;;;;;;;;;;18.64;32.85;96677.56;10471208;28;2081;-54
2023/02/16 10:50:40;;;;;;;;;;;;;;;18.61;32.83;96678.03;10461037;28;2092;-51
2023/02/16 10:55:41;;;;;;;;;;;;;;;18.60;32.80;96680.91;10448548;28;2471;-52
2023/02/16 11:00:50;;;;;;;;;;;;;;;18.56;32.95;96669.28;10448470;28;2174;-52
2023/02/16 11:05:52;;;;;;;;;;;;;;;18.59;32.87;96674.84;10440187;28;2097;-50
2023/02/16 11:10:52;;;;;;;;;;;;;;;18.59;32.86;96668.78;10472569;28;2391;-48
2023/02/16 11:15:53;;;;;;;;;;;;;;;18.58;33.06;96667.22;10471810;28;2338;-51
2023/02/16 11:20:54;;;;;;;;;;;;;;;18.57;33.20;96666.41;10450161;28;2071;-51
2023/02/16 11:25:55;;;;;;;;;;;;;;;18.56;33.10;96650.91;10423186;28;2329;-49
2023/02/16 11:31:00;;;;;;;;;;;;;;;18.55;33.28;96650.09;10405000;28;2084;-54
2023/02/16 11:36:04;;;;;;;;;;;;;;;18.52;33.33;96640.09;10410639;28;2285;-51
2023/02/16 11:41:05;;;;;;;;;;;;;;;18.55;33.36;96630.91;10412057;28;1970;-53
2023/02/16 11:46:15;;;;;;;;;;;;;;;18.56;33.11;96625.44;10420202;28;2261;-53
2023/02/16 11:51:27;;;;;;;;;;;;;;;18.55;33.16;96615.16;10420497;28;2268;-53
2023/02/16 11:56:28;;;;;;;;;;;;;;;18.55;33.22;96604.66;10423032;28;2296;-55
2023/02/16 12:01:44;;;;;;;;;;;;;;;18.53;33.21;96610.16;10423271;28;2350;-52
2023/02/16 12:06:54;;;;;;;;;;;;;;;18.53;33.29;96589.16;10437164;28;2287;-52
2023/02/16 12:12:05;;;;;;;;;;;;;;;18.53;33.39;96589.16;10439373;28;2277;-53
2023/02/16 12:17:17;;;;;;;;;;;;;;;18.53;33.26;96585.72;10429873;28;2302;-50
2023/02/16 12:22:17;;;;;;;;;;;;;;;18.53;33.41;96575.22;10425572;28;1971;-50
2023/02/16 12:27:19;;;;;;;;;;;;;;;18.55;33.41;96573.16;10424639;28;2283;-47
2023/02/16 12:32:29;;;;;;;;;;;;;;;18.55;33.87;96560.03;10411431;28;2424;-57
2023/02/16 12:37:29;;;;;;;;;;;;;;;18.58;33.35;96562.19;10393614;28;2263;-53
2023/02/16 12:42:35;;;;;;;;;;;;;;;18.57;33.25;96555.31;10416461;28;2380;-52
2023/02/16 12:47:40;;;;;;;;;;;;;;;18.59;33.21;96558.50;10417127;28;2376;-50
2023/02/16 12:52:41;;;;;;;;;;;;;;;18.64;33.28;96548.09;10401757;28;2657;-48
2023/02/16 12:57:44;;;;;;;;;;;;;;;18.58;33.68;96552.47;10402407;28;2292;-53
2023/02/16 13:02:49;;;;;;;;;;;;;;;18.61;34.08;96541.47;10402841;28;1982;-49
2023/02/16 13:07:51;;;;;;;;;;;;;;;18.65;34.15;96531.28;10414061;28;2057;-51
2023/02/16 13:12:57;;;;;;;;;;;;;;;18.63;34.21;96531.53;10420315;28;2447;-51
2023/02/16 13:17:59;;;;;;;;;;;;;;;18.65;34.37;96524.19;10402221;28;2346;-52
2023/02/16 13:23:18;;;;;;;;;;;;;;;18.69;34.42;96527.16;10451657;28;2284;-52
2023/02/16 13:28:21;;;;;;;;;;;;;;;18.78;34.42;96523.06;10459933;28;2386;-51
2023/02/16 13:33:36;;;;;;;;;;;;;;;18.85;34.26;96509.75;10461974;28;2157;-53
2023/02/16 13:38:49;;;;;;;;;;;;;;;18.93;34.35;96512.75;10471077;28;2337;-50
2023/02/16 13:43:49;;;;;;;;;;;;;;;19.02;34.24;96516.53;10499623;28;2271;-53
2023/02/16 13:48:49;;;;;;;;;;;;;;;19.06;34.24;96512.38;10453748;28;2123;-51
2023/02/16 13:53:53;;;;;;;;;;;;;;;19.05;34.37;96513.41;10462144;28;2464;-52
2023/02/16 13:58:54;;;;;;;;;;;;;;;19.04;34.33;96511.03;10459355;28;2016;-50
2023/02/16 14:03:55;;;;;;;;;;;;;;;19.04;34.30;96503.94;10454436;28;1938;-51
2023/02/16 14:09:10;;;;;;;;;;;;;;;19.05;34.51;96505.53;10459598;28;2115;-51
2023/02/16 14:14:24;;;;;;;;;;;;;;;19.09;34.42;96501.38;10460772;28;2246;-54
2023/02/16 14:19:24;;;;;;;;;;;;;;;19.07;34.67;96492.94;10465537;28;1898;-49
2023/02/16 14:24:25;;;;;;;;;;;;;;;19.04;34.66;96495.28;10447156;28;2328;-52
2023/02/16 14:29:26;;;;;;;;;;;;;;;19.01;34.80;96499.19;10416873;28;2054;-52
2023/02/16 14:34:28;;;;;;;;;;;;;;;18.98;34.66;96486.53;10405542;28;2369;-52
2023/02/16 14:39:28;;;;;;;;;;;;;;;18.97;34.70;96487.56;10426821;28;2307;-51
2023/02/16 14:44:48;;;;;;;;;;;;;;;18.96;34.26;96487.84;10402185;28;2284;-50
2023/02/16 14:49:57;;;;;;;;;;;;;;;18.96;34.14;96493.09;10438823;28;2009;-50
2023/02/16 14:55:00;;;;;;;;;;;;;;;18.97;34.13;96492.84;10419117;28;2405;-48
2023/02/16 15:00:03;;;;;;;;;;;;;;;18.99;34.14;96490.75;10421854;28;2305;-48
2023/02/16 15:05:16;;;;;;;;;;;;;;;19.04;34.25;96490.78;10402460;28;1962;-55
2023/02/16 15:10:25;;;;;;;;;;;;;;;19.09;34.23;96479.56;10422467;28;1990;-52
2023/02/16 15:15:31;;;;;;;;;;;;;;;19.13;34.27;96476.19;10419758;28;2310;-50
2023/02/16 15:20:33;;;;;;;;;;;;;;;19.18;33.93;96473.63;10402067;28;2288;-51
2023/02/16 15:25:37;;;;;;;;;;;;;;;19.21;33.78;96470.50;10455154;28;2293;-51
2023/02/16 15:30:46;;;;;;;;;;;;;;;19.23;33.81;96478.13;10459380;28;2157;-49
2023/02/16 15:35:50;;;;;;;;;;;;;;;19.25;33.77;96484.72;10465505;28;2199;-52
2023/02/16 15:40:52;;;;;;;;;;;;;;;19.25;33.58;96479.47;10462328;28;2029;-49
2023/02/16 15:45:52;;;;;;;;;;;;;;;19.29;33.46;96485.81;10465696;28;2348;-51
2023/02/16 15:50:53;;;;;;;;;;;;;;;19.30;33.39;96484.78;10460671;28;2054;-51
2023/02/16 15:55:53;;;;;;;;;;;;;;;19.34;33.45;96487.75;10456171;28;2279;-51
2023/02/16 16:00:54;;;;;;;;;;;;;;;19.36;33.48;96483.84;10458723;28;2331;-51
2023/02/16 16:05:57;;;;;;;;;;;;;;;19.38;33.49;96500.16;10450997;28;2102;-50
2023/02/16 16:10:58;;;;;;;;;;;;;;;19.41;33.40;96504.91;10459371;28;2046;-50
2023/02/16 16:16:00;;;;;;;;;;;;;;;19.43;33.28;96505.44;10460779;28;2060;-51
2023/02/16 16:21:01;;;;;;;;;;;;;;;19.44;33.54;96488.63;10463258;28;2694;-52
2023/02/16 16:26:01;;;;;;;;;;;;;;;19.48;33.71;96500.25;10422956;28;2424;-53
2023/02/16 16:31:08;;;;;;;;;;;;;;;19.49;33.71;96496.56;10421384;28;2029;-53
2023/02/16 16:36:11;;;;;;;;;;;;;;;19.52;33.67;96503.16;10422135;28;1988;-54
2023/02/16 16:41:25;;;;;;;;;;;;;;;19.53;33.62;96503.97;10403995;28;2245;-53
2023/02/16 16:46:26;;;;;;;;;;;;;;;19.54;33.62;96514.22;10427762;28;2272;-52
2023/02/16 16:51:32;;;;;;;;;;;;;;;19.56;33.62;96511.38;10422434;28;2281;-54
2023/02/16 16:56:36;;;;;;;;;;;;;;;19.58;33.60;96522.44;10421641;28;2094;-49
2023/02/16 17:01:36;;;;;;;;;;;;;;;19.57;33.54;96520.84;10423343;28;2329;-52
2023/02/16 17:06:37;;;;;;;;;;;;;;;19.57;33.61;96516.38;10421038;28;1971;-48
2023/02/16 17:11:37;;;;;;;;;;;;;;;19.56;33.64;96517.41;10420091;28;2005;-51
2023/02/16 17:16:38;;;;;;;;;;;;;;;19.58;33.47;96515.31;10427079;28;2142;-55
2023/02/16 17:21:38;;;;;;;;;;;;;;;19.58;33.63;96522.44;10414417;28;2350;-54
2023/02/16 17:26:39;;;;;;;;;;;;;;;19.59;33.55;96526.63;10413450;28;2336;-50
2023/02/16 17:31:39;;;;;;;;;;;;;;;19.61;33.29;96524.56;10413191;28;2293;-54
2023/02/16 17:36:39;;;;;;;;;;;;;;;19.65;33.42;96528.28;10411595;28;2133;-51
2023/02/16 17:41:40;;;;;;;;;;;;;;;19.66;33.14;96524.63;10415350;28;2003;-53
2023/02/16 17:46:40;;;;;;;;;;;;;;;19.69;32.98;96529.38;10415062;28;2251;-51
2023/02/16 17:51:40;;;;;;;;;;;;;;;19.70;32.96;96534.38;10393142;28;2116;-52
2023/02/16 17:56:41;;;;;;;;;;;;;;;19.74;32.99;96526.78;10417954;28;2069;-51
2023/02/16 18:01:42;;;;;;;;;;;;;;;19.74;32.80;96532.06;10410166;28;2103;-54
2023/02/16 18:06:42;;;;;;;;;;;;;;;19.78;32.96;96530.50;10423797;28;2266;-49
2023/02/16 18:11:42;;;;;;;;;;;;;;;19.78;32.75;96527.88;10416621;28;1994;-51
2023/02/16 18:16:43;;;;;;;;;;;;;;;19.80;32.89;96526.59;10420775;28;2152;-52
2023/02/16 18:21:43;;;;;;;;;;;;;;;19.80;32.81;96531.84;10416256;28;2025;-52
2023/02/16 18:26:43;;;;;;;;;;;;;;;19.84;32.79;96521.63;10418736;28;2018;-54
2023/02/16 18:31:43;;;;;;;;;;;;;;;19.83;32.65;96518.19;10419410;28;2352;-50
2023/02/16 18:36:44;;;;;;;;;;;;;;;19.83;32.54;96527.91;10422158;28;2053;-50
2023/02/16 18:41:44;;;;;;;;;;;;;;;19.84;32.70;96534.78;10424640;28;2041;-54
2023/02/16 18:46:44;;;;;;;;;;;;;;;19.83;32.58;96536.59;10420113;28;2268;-48
2023/02/16 18:51:45;;;;;;;;;;;;;;;19.85;32.56;96541.59;10421914;28;1982;-53
2023/02/16 18:56:46;;;;;;;;;;;;;;;19.84;32.53;96540.84;10423188;28;1923;-53
2023/02/16 19:01:46;;;;;;;;;;;;;;;19.86;32.49;96543.22;10420147;28;2255;-49
2023/02/16 19:06:47;;;;;;;;;;;;;;;19.86;32.55;96540.59;10416454;28;2292;-50
2023/02/16 19:11:47;;;;;;;;;;;;;;;19.84;32.64;96542.66;10418491;28;1962;-52
2023/02/16 19:16:47;;;;;;;;;;;;;;;19.82;32.54;96553.44;10434929;28;2230;-52
2023/02/16 19:21:47;;;;;;;;;;;;;;;19.81;32.72;96551.03;10415424;28;2048;-52
2023/02/16 19:26:48;;;;;;;;;;;;;;;19.78;32.55;96559.44;10418025;28;1967;-49
2023/02/16 19:31:48;;;;;;;;;;;;;;;19.79;32.47;96551.31;10422977;28;2333;-51
2023/02/16 19:36:48;;;;;;;;;;;;;;;19.76;32.47;96548.38;10413852;28;2041;-50
2023/02/16 19:41:49;;;;;;;;;;;;;;;19.75;32.60;96552.03;10412734;28;2021;-47
2023/02/16 19:46:49;;;;;;;;;;;;;;;19.74;32.64;96550.47;10413918;28;2425;-49
2023/02/16 19:51:49;;;;;;;;;;;;;;;19.72;32.46;96549.94;10416860;28;2353;-52
2023/02/16 19:56:52;;;;;;;;;;;;;;;19.72;32.49;96555.19;10416300;28;2405;-49
2023/02/16 20:01:52;;;;;;;;;;;;;;;19.70;32.67;96550.16;10414067;28;2262;-49
2023/02/16 20:06:53;;;;;;;;;;;;;;;19.70;32.50;96547.53;10418260;28;2361;-50
2023/02/16 20:11:53;;;;;;;;;;;;;;;19.70;32.49;96544.13;10416994;28;2066;-50
2023/02/16 20:16:54;;;;;;;;;;;;;;;19.68;32.55;96541.72;10396722;28;2096;-50
2023/02/16 20:21:54;;;;;;;;;;;;;;;19.71;32.33;96545.69;10410744;28;2104;-49
2023/02/16 20:26:54;;;;;;;;;;;;;;;19.75;32.44;96546.78;10418502;28;2288;-52
2023/02/16 20:31:55;;;;;;;;;;;;;;;19.78;32.66;96543.66;10417698;28;2287;-51
2023/02/16 20:36:55;;;;;;;;;;;;;;;19.78;32.73;96547.09;10416239;28;2112;-54
2023/02/16 20:41:57;;;;;;;;;;;;;;;19.81;32.75;96545.78;10417345;28;2295;-50
2023/02/16 20:46:57;;;;;;;;;;;;;;;19.78;32.76;96544.47;10413792;28;2037;-51
2023/02/16 20:51:57;;;;;;;;;;;;;;;19.79;32.71;96529.47;10412731;28;2267;-54
2023/02/16 20:56:58;;;;;;;;;;;;;;;19.81;33.27;96532.63;10420429;28;2280;-52
2023/02/16 21:01:58;;;;;;;;;;;;;;;19.81;33.54;96527.38;10426672;28;1915;-50
2023/02/16 21:06:58;;;;;;;;;;;;;;;19.78;33.50;96528.69;10423641;28;1946;-51
2023/02/16 21:11:59;;;;;;;;;;;;;;;19.76;33.39;96533.41;10419331;28;2312;-48
2023/02/16 21:16:59;;;;;;;;;;;;;;;19.73;33.49;96527.81;10422854;28;2299;-50
2023/02/16 21:21:59;;;;;;;;;;;;;;;19.71;33.51;96533.34;10419369;28;1916;-49
2023/02/16 21:27:00;;;;;;;;;;;;;;;19.65;33.69;96526.44;10426218;28;1970;-50
2023/02/16 21:32:00;;;;;;;;;;;;;;;19.62;33.58;96528.78;10433784;28;2049;-48
2023/02/16 21:37:00;;;;;;;;;;;;;;;19.56;33.51;96527.16;10424909;28;2339;-48
2023/02/16 21:42:01;;;;;;;;;;;;;;;19.53;33.60;96517.13;10427864;28;2056;-49
2023/02/16 21:52:20;;;;;;;;;;;;;;;19.43;33.60;96512.56;10428777;28;2113;-48
2023/02/16 21:57:20;;;;;;;;;;;;;;;19.41;33.48;96510.16;10425902;28;2386;-49
2023/02/16 22:02:20;;;;;;;;;;;;;;;19.39;33.61;96514.88;10429413;28;2025;-51
2023/02/16 22:07:21;;;;;;;;;;;;;;;19.42;35.89;96517.00;10417451;28;1970;-51
2023/02/16 22:12:21;;;;;;;;;;;;;;;19.43;36.09;96513.34;10439080;28;2300;-48
2023/02/16 22:17:21;;;;;;;;;;;;;;;19.42;35.90;96519.66;10436196;28;2334;-53
2023/02/16 22:22:21;;;;;;;;;;;;;;;19.41;35.90;96512.00;10411975;28;2125;-49
2023/02/16 22:27:22;;;;;;;;;;;;;;;19.38;36.04;96505.41;10432514;28;2072;-53
2023/02/16 22:32:22;;;;;;;;;;;;;;;19.35;35.88;96513.00;10418817;28;2029;-48
2023/02/16 22:37:22;;;;;;;;;;;;;;;19.30;35.73;96511.09;10425207;28;2048;-50
2023/02/16 22:42:22;;;;;;;;;;;;;;;19.29;35.56;96506.03;10427302;28;2385;-51
2023/02/16 22:47:23;;;;;;;;;;;;;;;19.25;35.20;96507.59;10429370;28;2022;-49
2023/02/16 22:52:23;;;;;;;;;;;;;;;19.22;35.27;96508.88;10428357;28;2319;-50
2023/02/16 22:57:23;;;;;;;;;;;;;;;19.19;35.02;96509.38;10424426;28;2185;-48
2023/02/16 23:02:23;;;;;;;;;;;;;;;19.16;35.09;96496.75;10418663;28;2356;-53
2023/02/16 23:07:24;;;;;;;;;;;;;;;19.14;34.86;96503.28;10417540;28;2090;-51
2023/02/16 23:12:24;;;;;;;;;;;;;;;19.12;35.03;96500.91;10422590;28;2008;-50
2023/02/16 23:17:24;;;;;;;;;;;;;;;19.09;34.96;96500.56;10420948;28;2328;-48
2023/02/16 23:22:25;;;;;;;;;;;;;;;19.07;34.73;96497.41;10423551;28;2047;-49
2023/02/16 23:27:25;;;;;;;;;;;;;;;19.04;34.90;96500.53;10425013;28;2398;-49
2023/02/16 23:32:25;;;;;;;;;;;;;;;19.02;34.69;96500.75;10419617;28;1983;-51
2023/02/16 23:37:29;;;;;;;;;;;;;;;18.99;34.72;96496.00;10421557;28;2028;-51
2023/02/16 23:42:29;;;;;;;;;;;;;;;18.99;34.79;96503.09;10416077;28;2668;-52
2023/02/16 23:47:29;;;;;;;;;;;;;;;18.96;34.79;96490.47;10413805;28;2144;-50
2023/02/16 23:52:30;;;;;;;;;;;;;;;18.93;34.63;96494.38;10428493;28;2384;-49
2023/02/16 23:57:30;;;;;;;;;;;;;;;18.91;34.74;96485.94;10426720;28;2270;-49
